d.16/8 - Nu er de lyse nætter slut. Synlige planeter lige efter solnedgang, ikke så højt over horisonten: Jupiter mod sydvest, Saturn lidt sydligere og Mars mod sydøst.


Vejr3>N more information Vejr3>N


Vejr3>V more information Vejr3>V


3 timers nedbørs radar more information rain snow radar


besøg nogle andre vejrsider:

Template dokumentation
og downloads

And another site


Select another period ( hide this area )

enheder periode Custom range Directly to
metrisk engelsk både
dagens ugenligt månedlig årligt
use both date-selectors for a custom range
forgående dag
With this date

WeatherUnderground graphs for this period ( click here )


dagens sammenfatning af onsdag 19 september 2018
tid Temp. ( °C ) Dew pt. ( °C ) vind ( km/h ) fra vindstød ( km/h ) lufttryk ( hPa ) Humid.( % ) Rainrate ( cm ) solenergi ( W/m2 )
høj21,7 17,2 29,6 ssø ( 772/2373 ) 19,0 1013,1 97 - 652
gennemsnit16,9 15,1 13,0 ssø #64/182 6,7 1011,5 89 - 282 #100/182
lav14,4 13,7 3,7   0,6 1009,4 70 -  
dagens Tabular details for onsdag 19 september 2018
tid Temp. ( °C ) Dew pt. ( °C ) vind ( km/h ) fra vindstød ( km/h ) lufttryk ( hPa ) Humid.( % ) Rainrate ( cm ) solenergi ( W/m2 )
00:04 16,3 14,2 9,3 ssø 3,9 1009,5 87 - -
00:07 16,3 14,1 13,0 syd 3,1 1009,4 87 - -
00:14 16,2 14,1 14,5 sv 4,7 1009,5 87 - -
00:19 16,2 14,2 5,6 vsv 4,0 1009,4 88 - -
00:24 16,1 14,1 7,4 sv 3,4 1009,5 88 - -
00:29 16,1 14,1 11,1 syd 5,5 1009,5 88 - -
00:34 16,1 14,1 9,7 syd 6,3 1009,5 88 - -
00:39 16,1 14,1 11,1 ssø 2,9 1009,5 88 - -
00:44 16,0 14,0 9,3 syd 4,0 1009,5 88 - -
00:49 15,9 13,9 7,4 ssø 3,2 1009,5 88 - -
00:54 15,9 14,1 9,3 5,0 1009,5 89 - -
00:59 15,9 14,1 7,4 ssø 4,7 1009,6 89 - -
01:04 15,8 14,0 9,7 ssø 3,7 1009,5 89 - -
01:09 15,8 14,0 8,0 syd 2,6 1009,5 89 - -
01:14 15,8 14,2 7,4 ssø 4,2 1009,5 90 - -
01:19 15,8 14,2 7,4 syd 4,8 1009,5 90 - -
01:24 15,7 14,1 5,6 syd 2,9 1009,6 90 - -
01:29 15,7 14,1 7,4 syd 4,5 1009,6 90 - -
01:34 15,7 14,1 5,6 ssø 1,9 1009,6 90 - -
01:39 15,6 14,0 9,3 syd 5,1 1009,7 90 - -
01:44 15,6 14,1 9,3 syd 4,7 1009,6 91 - -
01:49 15,6 14,1 7,4 syd 5,1 1009,6 91 - -
01:54 15,5 14,1 7,4 4,0 1009,6 91 - -
01:59 15,4 14,0 7,4 ssø 4,7 1009,6 91 - -
02:04 15,4 14,1 9,7 4,3 1009,6 92 - -
02:09 15,3 14,1 7,4 ssø 4,7 1009,7 92 - -
02:14 15,3 14,0 11,1 ssø 6,9 1009,8 92 - -
02:19 15,2 13,9 9,3 øsø 4,2 1009,8 92 - -
02:24 15,1 13,8 5,6 ssø 1,8 1009,8 92 - -
02:29 15,1 13,8 5,6 syd 1,9 1009,8 92 - -
02:34 14,9 13,8 5,6 ssø 2,1 1009,9 93 - -
02:39 14,9 13,8 6,4 ssø 1,6 1010,0 93 - -
02:44 14,8 13,7 7,4 ssø 3,9 1009,9 93 - -
02:49 14,8 13,7 9,7 syd 5,3 1010,0 93 - -
02:54 14,8 13,9 11,1 ssø 4,7 1010,1 94 - -
02:59 14,8 13,8 7,4 ssø 2,4 1010,1 94 - -
03:04 14,8 13,8 11,1 5,8 1010,2 94 - -
03:09 14,8 13,8 7,4 syd 5,0 1010,2 94 - -
03:14 14,8 13,9 5,6 ssø 2,1 1010,2 94 - -
03:19 14,9 14,1 9,3 syd 3,9 1010,3 95 - -
03:24 14,8 14,1 6,4 syd 3,1 1010,4 95 - -
03:29 14,9 14,1 5,6 syd 1,1 1010,4 95 - -
03:34 14,8 14,1 16,1 ssø 4,8 1010,4 95 - -
03:39 14,8 13,8 7,4 ssø 2,9 1010,5 94 - -
03:44 14,8 14,0 7,4 1,8 1010,7 95 - -
03:49 14,8 14,0 7,4 syd 5,1 1010,7 95 - -
03:54 14,7 13,9 9,3 ssø 3,4 1010,7 95 - -
03:59 14,7 13,9 11,1 ssø 6,3 1010,7 95 - -
04:04 14,7 13,9 7,4 ssø 4,2 1010,7 95 - -
04:09 14,7 13,9 3,7 ssø 1,0 1010,8 95 - -
04:14 14,7 13,9 3,7 ssø 2,3 1010,8 95 - -
04:19 14,6 13,8 9,3 ssø 5,1 1010,8 95 - -
04:24 14,6 13,8 6,4 ssø 0,6 1010,9 95 - -
04:29 14,6 13,8 7,4 ssø 1,9 1011,0 95 - -
04:34 14,6 13,8 7,4 ssø 1,8 1010,9 95 - -
04:39 14,6 13,9 7,4 ssø 4,5 1010,9 96 - -
04:44 14,6 13,8 7,4 4,0 1011,0 95 - -
04:49 14,6 13,9 5,6 ssø 2,9 1011,0 96 - -
04:54 14,6 13,8 8,0 syd 4,2 1011,0 95 - -
04:59 14,5 13,7 7,4 ssø 3,1 1011,1 95 - -
05:04 14,5 13,9 11,1 ssø 8,0 1011,1 96 - -
05:09 14,5 13,9 9,3 ssø 3,2 1011,1 96 - -
05:14 14,5 13,9 11,1 ssø 7,4 1011,1 96 - -
05:19 14,5 13,9 14,8 7,4 1011,2 96 - -
05:24 14,5 13,9 16,7 ssø 5,6 1011,2 96 - -
05:29 14,5 13,9 9,3 5,5 1011,1 96 - -
05:34 14,6 13,9 9,3 syd 5,5 1011,1 96 - -
05:39 14,5 13,9 5,6 1,0 1011,2 96 - -
05:44 14,5 13,9 7,4 ssø 2,9 1011,3 96 - -
05:49 14,4 13,8 14,8 3,5 1011,4 96 - -
05:54 14,4 13,8 9,3 ssø 1,9 1011,4 96 - -
05:59 14,4 13,8 7,4 ssø 5,1 1011,5 96 - -
06:04 14,4 13,8 7,4 syd 3,7 1011,5 96 - -
06:09 14,4 14,0 11,1 4,0 1011,4 97 - -
06:14 14,5 14,1 14,8 ssø 6,8 1011,4 97 - -
06:19 14,5 14,1 6,4 øsø 2,7 1011,5 97 - -
06:24 14,6 14,1 9,3 ssø 4,0 1011,6 97 - -
06:29 14,6 14,2 5,6 ssø 3,4 1011,6 97 - -
06:34 14,7 14,2 9,3 ssø 6,4 1011,6 97 - -
06:39 14,7 14,3 5,6 syd 3,2 1011,7 97 - -
06:44 14,8 14,3 11,3 ssø 3,5 1011,7 97 - -
06:49 14,8 14,3 16,7 sv 3,2 1011,8 97 - -
06:54 14,8 14,4 13,0 ssø 6,8 1011,8 97 - 5
06:59 14,8 14,4 6,4 syd 2,1 1011,9 97 - 7
07:04 14,8 14,4 7,4 4,3 1011,9 97 - 9
07:09 14,9 14,4 5,6 ssø 1,6 1011,9 97 - 11
07:14 14,9 14,4 7,4 4,0 1011,9 97 - 14
07:19 14,9 14,4 7,4 syd 2,1 1012,0 97 - 18
07:24 14,9 14,5 7,4 syd 1,6 1012,1 97 - 23
07:29 14,9 14,4 14,8 syd 7,4 1012,1 97 - 28
07:34 14,9 14,5 7,4 syd 2,7 1012,2 97 - 32
07:39 14,9 14,5 11,1 ssø 5,6 1012,2 97 - 35
07:44 15,0 14,6 9,3 ssø 5,1 1012,2 97 - 39
07:49 15,1 14,6 11,3 syd 3,1 1012,2 97 - 40
07:54 15,1 14,6 7,4 ssø 5,1 1012,1 97 - 42
07:59 15,1 14,6 12,9 ssø 4,8 1012,0 97 - 47
08:04 15,2 14,7 5,6 ssø 3,7 1012,1 97 - 51
08:09 15,2 14,7 8,0 ssø 4,2 1012,1 97 - 60
08:14 15,3 14,8 9,3 ssø 4,8 1012,1 97 - 72
08:19 15,3 14,8 5,6 ssø 3,7 1012,2 97 - 72
08:24 15,4 14,9 18,5 ssø 7,2 1012,1 97 - 76
08:29 15,6 15,1 11,1 syd 6,8 1012,1 97 - 81
08:34 15,7 15,2 16,7 syd 8,7 1012,1 97 - 155
08:39 15,8 15,3 16,7 ssø 7,9 1012,2 97 - 171
08:44 16,0 15,5 18,5 ssø 9,2 1012,2 97 - 193
08:49 16,2 15,7 18,5 ssø 10,3 1012,3 97 - 132
08:54 16,2 15,7 11,1 ssø 5,3 1012,3 97 - 97
08:59 16,3 15,7 14,8 6,4 1012,2 96 - 193
09:04 16,4 15,8 11,3 ssø 7,7 1012,3 96 - 225
09:09 16,6 15,9 6,4 4,8 1012,2 96 - 213
09:14 16,8 16,2 14,8 syd 7,6 1012,2 96 - 253
09:19 17,0 16,2 11,1 5,5 1012,1 95 - 274
09:24 17,2 16,2 11,1 syd 9,2 1012,1 94 - 306
09:29 17,3 16,3 9,3 ssø 4,5 1012,1 94 - 297
09:34 17,5 16,3 11,1 7,2 1012,1 93 - 271
09:39 17,7 16,6 7,4 syd 3,4 1012,1 93 - 142
09:44 17,8 16,5 14,5 ssø 5,5 1012,2 92 - 297
09:49 17,9 16,4 9,7 syd 5,8 1012,2 91 - 278
09:54 18,1 16,6 9,7 ssø 2,6 1012,2 91 - 297
09:59 18,1 16,4 18,5 8,8 1012,3 90 - 74
10:04 18,1 16,2 18,5 sv 12,1 1012,2 89 - 107
10:09 18,1 16,4 18,5 ssø 10,8 1012,2 90 - 311
10:14 18,2 16,6 16,7 ssø 8,4 1012,3 90 - 367
10:19 18,4 16,6 20,4 ssø 14,6 1012,2 89 - 383
10:24 18,6 16,6 18,5 syd 11,7 1012,2 88 - 327
10:29 18,7 16,6 12,9 ssø 6,1 1012,2 88 - 404
10:34 18,8 16,6 18,5 ssø 9,5 1012,2 87 - 151
10:39 18,8 16,6 22,2 11,3 1012,1 87 - 410
10:44 18,9 16,6 18,5 syd 10,3 1012,2 86 - 413
10:49 19,0 16,8 11,1 5,5 1012,4 87 - 446
10:54 19,0 16,4 18,5 ssø 9,5 1012,3 85 - 255
10:59 19,1 16,8 20,9 ssø 14,0 1012,3 87 - 431
11:04 19,1 16,6 16,7 øsø 7,4 1012,3 85 - 343
11:09 19,3 16,9 20,4 12,2 1012,3 86 - 473
11:14 19,4 17,0 18,5 ssø 10,1 1012,3 86 - 492
11:19 19,6 16,9 18,5 syd 11,4 1012,3 85 - 461
11:24 19,7 16,9 22,2 13,2 1012,4 84 - 427
11:29 19,8 17,0 16,7 ssø 7,2 1012,1 84 - 369
11:34 19,8 16,7 22,2 syd 12,4 1012,1 82 - 443
11:39 19,9 16,9 24,1 ssø 12,7 1012,2 83 - 420
11:44 20,1 16,9 16,7 ssø 7,4 1012,2 82 - 410
11:49 20,3 17,2 20,9 12,9 1012,3 82 - 424
11:54 20,4 17,1 18,5 ssø 8,5 1012,4 81 - 385
11:59 20,4 17,1 18,5 syd 10,3 1012,5 81 - 262
12:04 20,3 16,8 18,5 ssø 11,4 1012,5 80 - 299
12:09 20,2 16,8 16,1 syd 6,3 1012,8 81 - 236
12:14 20,3 16,9 25,9 ssø 15,1 1012,7 81 - 294
12:19 20,3 16,7 27,8 ssø 12,7 1012,7 80 - 299
12:24 20,0 16,2 29,6 sv 16,6 1012,9 79 - 260
12:29 19,8 16,5 22,5 syd 12,6 1012,8 81 - 325
12:34 19,8 16,5 20,4 sv 9,8 1012,9 81 - 290
12:39 19,8 16,4 18,5 vest 12,6 1013,0 81 - 192
12:44 19,7 16,3 11,1 ssø 5,5 1013,0 81 - 163
12:49 19,3 15,9 18,5 ssø 9,3 1013,1 81 - 278
12:54 19,2 15,9 27,8 syd 19,0 1013,0 81 - 334
12:59 19,1 15,8 27,8 ssø 16,4 1013,0 81 - 265
13:04 19,1 15,8 22,2 ssø 15,0 1012,9 81 - 316
13:09 19,2 16,0 19,3 9,3 1012,9 82 - 378
13:14 19,3 15,7 24,1 syd 16,1 1013,0 80 - 260
13:19 19,1 15,5 20,4 syd 11,3 1013,0 80 - 243
13:24 19,0 15,7 18,5 syd 9,3 1013,0 81 - 276
13:29 19,2 15,7 11,3 syd 6,0 1012,9 80 - 250
13:34 19,4 15,9 16,7 ssø 9,3 1012,8 80 - 557
13:39 19,7 16,1 17,7 syd 8,5 1012,8 80 - 554
13:44 19,8 15,9 18,5 ssø 11,3 1012,7 78 - 522
13:49 20,1 16,2 20,9 syd 9,5 1012,7 78 - 571
13:54 20,3 15,9 22,2 13,8 1012,7 76 - 552
13:59 20,4 15,9 18,5 syd 12,2 1012,5 75 - 577
14:04 20,7 16,1 22,2 13,0 1012,5 75 - 403
14:09 20,7 15,9 22,5 syd 12,9 1012,5 74 - 329
14:14 20,6 16,2 17,7 ssø 9,8 1012,3 76 - 381
14:19 20,8 16,0 22,2 ssø 14,6 1012,4 74 - 652
14:24 21,1 16,3 14,8 ssø 9,0 1012,4 74 - 554
14:29 21,4 16,3 16,7 syd 8,8 1012,5 73 - 253
14:34 21,4 16,4 24,1 8,2 1012,6 73 - 531
14:39 21,4 16,4 19,3 13,0 1012,6 73 - 501
14:44 21,5 16,2 25,7 syd 13,7 1012,5 72 - 513
14:49 21,4 16,2 19,3 10,6 1012,5 72 - 315
14:54 21,5 16,0 25,7 ssø 15,4 1012,4 71 - 517
14:59 21,6 16,1 22,2 ssø 10,3 1012,4 71 - 243
15:04 21,5 16,2 22,2 ssø 10,9 1012,5 72 - 594
15:09 21,7 15,9 24,1 ssø 14,0 1012,4 70 - 552
dagens sammenfatning af onsdag 19 september 2018
tid Temp. ( °C ) Dew pt. ( °C ) vind ( km/h ) fra vindstød ( km/h ) lufttryk ( hPa ) Humid.( % ) Rainrate ( cm ) solenergi ( W/m2 )
høj21,7 17,2 29,6 ssø ( 772/2373 ) 19,0 1013,1 97 - 652
gennemsnit16,9 15,1 13,0 ssø #64/182 6,7 1011,5 89 - 282 #100/182
lav14,4 13,7 3,7   0,6 1009,4 70 -  
dagens Tabular details for onsdag 19 september 2018
tid Temp. ( °C ) Dew pt. ( °C ) vind ( km/h ) fra vindstød ( km/h ) lufttryk ( hPa ) Humid.( % ) Rainrate ( cm ) solenergi ( W/m2 )
00:04 16,3 14,2 9,3 ssø 3,9 1009,5 87 - -
00:07 16,3 14,1 13,0 syd 3,1 1009,4 87 - -
00:14 16,2 14,1 14,5 sv 4,7 1009,5 87 - -
00:19 16,2 14,2 5,6 vsv 4,0 1009,4 88 - -
00:24 16,1 14,1 7,4 sv 3,4 1009,5 88 - -
00:29 16,1 14,1 11,1 syd 5,5 1009,5 88 - -
00:34 16,1 14,1 9,7 syd 6,3 1009,5 88 - -
00:39 16,1 14,1 11,1 ssø 2,9 1009,5 88 - -
00:44 16,0 14,0 9,3 syd 4,0 1009,5 88 - -
00:49 15,9 13,9 7,4 ssø 3,2 1009,5 88 - -
00:54 15,9 14,1 9,3 5,0 1009,5 89 - -
00:59 15,9 14,1 7,4 ssø 4,7 1009,6 89 - -
01:04 15,8 14,0 9,7 ssø 3,7 1009,5 89 - -
01:09 15,8 14,0 8,0 syd 2,6 1009,5 89 - -
01:14 15,8 14,2 7,4 ssø 4,2 1009,5 90 - -
01:19 15,8 14,2 7,4 syd 4,8 1009,5 90 - -
01:24 15,7 14,1 5,6 syd 2,9 1009,6 90 - -
01:29 15,7 14,1 7,4 syd 4,5 1009,6 90 - -
01:34 15,7 14,1 5,6 ssø 1,9 1009,6 90 - -
01:39 15,6 14,0 9,3 syd 5,1 1009,7 90 - -
01:44 15,6 14,1 9,3 syd 4,7 1009,6 91 - -
01:49 15,6 14,1 7,4 syd 5,1 1009,6 91 - -
01:54 15,5 14,1 7,4 4,0 1009,6 91 - -
01:59 15,4 14,0 7,4 ssø 4,7 1009,6 91 - -
02:04 15,4 14,1 9,7 4,3 1009,6 92 - -
02:09 15,3 14,1 7,4 ssø 4,7 1009,7 92 - -
02:14 15,3 14,0 11,1 ssø 6,9 1009,8 92 - -
02:19 15,2 13,9 9,3 øsø 4,2 1009,8 92 - -
02:24 15,1 13,8 5,6 ssø 1,8 1009,8 92 - -
02:29 15,1 13,8 5,6 syd 1,9 1009,8 92 - -
02:34 14,9 13,8 5,6 ssø 2,1 1009,9 93 - -
02:39 14,9 13,8 6,4 ssø 1,6 1010,0 93 - -
02:44 14,8 13,7 7,4 ssø 3,9 1009,9 93 - -
02:49 14,8 13,7 9,7 syd 5,3 1010,0 93 - -
02:54 14,8 13,9 11,1 ssø 4,7 1010,1 94 - -
02:59 14,8 13,8 7,4 ssø 2,4 1010,1 94 - -
03:04 14,8 13,8 11,1 5,8 1010,2 94 - -
03:09 14,8 13,8 7,4 syd 5,0 1010,2 94 - -
03:14 14,8 13,9 5,6 ssø 2,1 1010,2 94 - -
03:19 14,9 14,1 9,3 syd 3,9 1010,3 95 - -
03:24 14,8 14,1 6,4 syd 3,1 1010,4 95 - -
03:29 14,9 14,1 5,6 syd 1,1 1010,4 95 - -
03:34 14,8 14,1 16,1 ssø 4,8 1010,4 95 - -
03:39 14,8 13,8 7,4 ssø 2,9 1010,5 94 - -
03:44 14,8 14,0 7,4 1,8 1010,7 95 - -
03:49 14,8 14,0 7,4 syd 5,1 1010,7 95 - -
03:54 14,7 13,9 9,3 ssø 3,4 1010,7 95 - -
03:59 14,7 13,9 11,1 ssø 6,3 1010,7 95 - -
04:04 14,7 13,9 7,4 ssø 4,2 1010,7 95 - -
04:09 14,7 13,9 3,7 ssø 1,0 1010,8 95 - -
04:14 14,7 13,9 3,7 ssø 2,3 1010,8 95 - -
04:19 14,6 13,8 9,3 ssø 5,1 1010,8 95 - -
04:24 14,6 13,8 6,4 ssø 0,6 1010,9 95 - -
04:29 14,6 13,8 7,4 ssø 1,9 1011,0 95 - -
04:34 14,6 13,8 7,4 ssø 1,8 1010,9 95 - -
04:39 14,6 13,9 7,4 ssø 4,5 1010,9 96 - -
04:44 14,6 13,8 7,4 4,0 1011,0 95 - -
04:49 14,6 13,9 5,6 ssø 2,9 1011,0 96 - -
04:54 14,6 13,8 8,0 syd 4,2 1011,0 95 - -
04:59 14,5 13,7 7,4 ssø 3,1 1011,1 95 - -
05:04 14,5 13,9 11,1 ssø 8,0 1011,1 96 - -
05:09 14,5 13,9 9,3 ssø 3,2 1011,1 96 - -
05:14 14,5 13,9 11,1 ssø 7,4 1011,1 96 - -
05:19 14,5 13,9 14,8 7,4 1011,2 96 - -
05:24 14,5 13,9 16,7 ssø 5,6 1011,2 96 - -
05:29 14,5 13,9 9,3 5,5 1011,1 96 - -
05:34 14,6 13,9 9,3 syd 5,5 1011,1 96 - -
05:39 14,5 13,9 5,6 1,0 1011,2 96 - -
05:44 14,5 13,9 7,4 ssø 2,9 1011,3 96 - -
05:49 14,4 13,8 14,8 3,5 1011,4 96 - -
05:54 14,4 13,8 9,3 ssø 1,9 1011,4 96 - -
05:59 14,4 13,8 7,4 ssø 5,1 1011,5 96 - -
06:04 14,4 13,8 7,4 syd 3,7 1011,5 96 - -
06:09 14,4 14,0 11,1 4,0 1011,4 97 - -
06:14 14,5 14,1 14,8 ssø 6,8 1011,4 97 - -
06:19 14,5 14,1 6,4 øsø 2,7 1011,5 97 - -
06:24 14,6 14,1 9,3 ssø 4,0 1011,6 97 - -
06:29 14,6 14,2 5,6 ssø 3,4 1011,6 97 - -
06:34 14,7 14,2 9,3 ssø 6,4 1011,6 97 - -
06:39 14,7 14,3 5,6 syd 3,2 1011,7 97 - -
06:44 14,8 14,3 11,3 ssø 3,5 1011,7 97 - -
06:49 14,8 14,3 16,7 sv 3,2 1011,8 97 - -
06:54 14,8 14,4 13,0 ssø 6,8 1011,8 97 - 5
06:59 14,8 14,4 6,4 syd 2,1 1011,9 97 - 7
07:04 14,8 14,4 7,4 4,3 1011,9 97 - 9
07:09 14,9 14,4 5,6 ssø 1,6 1011,9 97 - 11
07:14 14,9 14,4 7,4 4,0 1011,9 97 - 14
07:19 14,9 14,4 7,4 syd 2,1 1012,0 97 - 18
07:24 14,9 14,5 7,4 syd 1,6 1012,1 97 - 23
07:29 14,9 14,4 14,8 syd 7,4 1012,1 97 - 28
07:34 14,9 14,5 7,4 syd 2,7 1012,2 97 - 32
07:39 14,9 14,5 11,1 ssø 5,6 1012,2 97 - 35
07:44 15,0 14,6 9,3 ssø 5,1 1012,2 97 - 39
07:49 15,1 14,6 11,3 syd 3,1 1012,2 97 - 40
07:54 15,1 14,6 7,4 ssø 5,1 1012,1 97 - 42
07:59 15,1 14,6 12,9 ssø 4,8 1012,0 97 - 47
08:04 15,2 14,7 5,6 ssø 3,7 1012,1 97 - 51
08:09 15,2 14,7 8,0 ssø 4,2 1012,1 97 - 60
08:14 15,3 14,8 9,3 ssø 4,8 1012,1 97 - 72
08:19 15,3 14,8 5,6 ssø 3,7 1012,2 97 - 72
08:24 15,4 14,9 18,5 ssø 7,2 1012,1 97 - 76
08:29 15,6 15,1 11,1 syd 6,8 1012,1 97 - 81
08:34 15,7 15,2 16,7 syd 8,7 1012,1 97 - 155
08:39 15,8 15,3 16,7 ssø 7,9 1012,2 97 - 171
08:44 16,0 15,5 18,5 ssø 9,2 1012,2 97 - 193
08:49 16,2 15,7 18,5 ssø 10,3 1012,3 97 - 132
08:54 16,2 15,7 11,1 ssø 5,3 1012,3 97 - 97
08:59 16,3 15,7 14,8 6,4 1012,2 96 - 193
09:04 16,4 15,8 11,3 ssø 7,7 1012,3 96 - 225
09:09 16,6 15,9 6,4 4,8 1012,2 96 - 213
09:14 16,8 16,2 14,8 syd 7,6 1012,2 96 - 253
09:19 17,0 16,2 11,1 5,5 1012,1 95 - 274
09:24 17,2 16,2 11,1 syd 9,2 1012,1 94 - 306
09:29 17,3 16,3 9,3 ssø 4,5 1012,1 94 - 297
09:34 17,5 16,3 11,1 7,2 1012,1 93 - 271
09:39 17,7 16,6 7,4 syd 3,4 1012,1 93 - 142
09:44 17,8 16,5 14,5 ssø 5,5 1012,2 92 - 297
09:49 17,9 16,4 9,7 syd 5,8 1012,2 91 - 278
09:54 18,1 16,6 9,7 ssø 2,6 1012,2 91 - 297
09:59 18,1 16,4 18,5 8,8 1012,3 90 - 74
10:04 18,1 16,2 18,5 sv 12,1 1012,2 89 - 107
10:09 18,1 16,4 18,5 ssø 10,8 1012,2 90 - 311
10:14 18,2 16,6 16,7 ssø 8,4 1012,3 90 - 367
10:19 18,4 16,6 20,4 ssø 14,6 1012,2 89 - 383
10:24 18,6 16,6 18,5 syd 11,7 1012,2 88 - 327
10:29 18,7 16,6 12,9 ssø 6,1 1012,2 88 - 404
10:34 18,8 16,6 18,5 ssø 9,5 1012,2 87 - 151
10:39 18,8 16,6 22,2 11,3 1012,1 87 - 410
10:44 18,9 16,6 18,5 syd 10,3 1012,2 86 - 413
10:49 19,0 16,8 11,1 5,5 1012,4 87 - 446
10:54 19,0 16,4 18,5 ssø 9,5 1012,3 85 - 255
10:59 19,1 16,8 20,9 ssø 14,0 1012,3 87 - 431
11:04 19,1 16,6 16,7 øsø 7,4 1012,3 85 - 343
11:09 19,3 16,9 20,4 12,2 1012,3 86 - 473
11:14 19,4 17,0 18,5 ssø 10,1 1012,3 86 - 492
11:19 19,6 16,9 18,5 syd 11,4 1012,3 85 - 461
11:24 19,7 16,9 22,2 13,2 1012,4 84 - 427
11:29 19,8 17,0 16,7 ssø 7,2 1012,1 84 - 369
11:34 19,8 16,7 22,2 syd 12,4 1012,1 82 - 443
11:39 19,9 16,9 24,1 ssø 12,7 1012,2 83 - 420
11:44 20,1 16,9 16,7 ssø 7,4 1012,2 82 - 410
11:49 20,3 17,2 20,9 12,9 1012,3 82 - 424
11:54 20,4 17,1 18,5 ssø 8,5 1012,4 81 - 385
11:59 20,4 17,1 18,5 syd 10,3 1012,5 81 - 262
12:04 20,3 16,8 18,5 ssø 11,4 1012,5 80 - 299
12:09 20,2 16,8 16,1 syd 6,3 1012,8 81 - 236
12:14 20,3 16,9 25,9 ssø 15,1 1012,7 81 - 294
12:19 20,3 16,7 27,8 ssø 12,7 1012,7 80 - 299
12:24 20,0 16,2 29,6 sv 16,6 1012,9 79 - 260
12:29 19,8 16,5 22,5 syd 12,6 1012,8 81 - 325
12:34 19,8 16,5 20,4 sv 9,8 1012,9 81 - 290
12:39 19,8 16,4 18,5 vest 12,6 1013,0 81 - 192
12:44 19,7 16,3 11,1 ssø 5,5 1013,0 81 - 163
12:49 19,3 15,9 18,5 ssø 9,3 1013,1 81 - 278
12:54 19,2 15,9 27,8 syd 19,0 1013,0 81 - 334
12:59 19,1 15,8 27,8 ssø 16,4 1013,0 81 - 265
13:04 19,1 15,8 22,2 ssø 15,0 1012,9 81 - 316
13:09 19,2 16,0 19,3 9,3 1012,9 82 - 378
13:14 19,3 15,7 24,1 syd 16,1 1013,0 80 - 260
13:19 19,1 15,5 20,4 syd 11,3 1013,0 80 - 243
13:24 19,0 15,7 18,5 syd 9,3 1013,0 81 - 276
13:29 19,2 15,7 11,3 syd 6,0 1012,9 80 - 250
13:34 19,4 15,9 16,7 ssø 9,3 1012,8 80 - 557
13:39 19,7 16,1 17,7 syd 8,5 1012,8 80 - 554
13:44 19,8 15,9 18,5 ssø 11,3 1012,7 78 - 522
13:49 20,1 16,2 20,9 syd 9,5 1012,7 78 - 571
13:54 20,3 15,9 22,2 13,8 1012,7 76 - 552
13:59 20,4 15,9 18,5 syd 12,2 1012,5 75 - 577
14:04 20,7 16,1 22,2 13,0 1012,5 75 - 403
14:09 20,7 15,9 22,5 syd 12,9 1012,5 74 - 329
14:14 20,6 16,2 17,7 ssø 9,8 1012,3 76 - 381
14:19 20,8 16,0 22,2 ssø 14,6 1012,4 74 - 652
14:24 21,1 16,3 14,8 ssø 9,0 1012,4 74 - 554
14:29 21,4 16,3 16,7 syd 8,8 1012,5 73 - 253
14:34 21,4 16,4 24,1 8,2 1012,6 73 - 531
14:39 21,4 16,4 19,3 13,0 1012,6 73 - 501
14:44 21,5 16,2 25,7 syd 13,7 1012,5 72 - 513
14:49 21,4 16,2 19,3 10,6 1012,5 72 - 315
14:54 21,5 16,0 25,7 ssø 15,4 1012,4 71 - 517
14:59 21,6 16,1 22,2 ssø 10,3 1012,4 71 - 243
15:04 21,5 16,2 22,2 ssø 10,9 1012,5 72 - 594
15:09 21,7 15,9 24,1 ssø 14,0 1012,4 70 - 552

Download your copy of this data-set  here

Our weather-data as stored at Weather Underground. script udviklet af Jim McMurry. tilpasset til dette template Leuven-Template.eu

du finder også vores vejrinformationer på:

European Weather Network

Weather Underground

AWEKAS

WeatherlinkIP

Citizen Weather Observer Program (CWOP)

udstyr som vi anvender:

vejrstation
Davis VP2+

vejrprogram
Weather Display

vejrserver
Dell E6400

hjemmeside host
Webhosting.dk

Davis VP2+

Weather Display

Dell E6400

Webhosting.dk